sensor_id;sensor_type;location;lat;lon;timestamp;pressure;altitude;pressure_sealevel;temperature;humidity
59104;BME280;51449;51.676;5.812;2023-02-23T00:00:03;101195.94;;;10.22;79.97
59104;BME280;51449;51.676;5.812;2023-02-23T00:02:41;101181.84;;;10.15;79.88
59104;BME280;51449;51.676;5.812;2023-02-23T00:05:03;101188.47;;;10.14;80.14
59104;BME280;51449;51.676;5.812;2023-02-23T00:07:24;101193.53;;;10.12;79.89
59104;BME280;51449;51.676;5.812;2023-02-23T00:09:47;101189.47;;;10.10;79.99
59104;BME280;51449;51.676;5.812;2023-02-23T00:12:08;101196.09;;;10.08;79.86
59104;BME280;51449;51.676;5.812;2023-02-23T00:14:30;101188.00;;;10.12;79.96
59104;BME280;51449;51.676;5.812;2023-02-23T00:16:53;101194.31;;;10.13;80.32
59104;BME280;51449;51.676;5.812;2023-02-23T00:19:16;101192.38;;;10.13;80.35
59104;BME280;51449;51.676;5.812;2023-02-23T00:21:39;101196.72;;;10.14;80.05
59104;BME280;51449;51.676;5.812;2023-02-23T00:24:10;101191.22;;;10.14;80.37
59104;BME280;51449;51.676;5.812;2023-02-23T00:26:39;101194.13;;;10.09;80.31
59104;BME280;51449;51.676;5.812;2023-02-23T00:29:10;101192.84;;;10.06;80.25
59104;BME280;51449;51.676;5.812;2023-02-23T00:31:34;101187.66;;;10.05;80.49
59104;BME280;51449;51.676;5.812;2023-02-23T00:33:58;101180.88;;;10.02;80.55
59104;BME280;51449;51.676;5.812;2023-02-23T00:36:28;101185.38;;;9.98;80.45
59104;BME280;51449;51.676;5.812;2023-02-23T00:38:58;101183.59;;;9.94;80.46
59104;BME280;51449;51.676;5.812;2023-02-23T00:41:23;101187.78;;;9.91;80.43
59104;BME280;51449;51.676;5.812;2023-02-23T00:43:49;101193.94;;;9.88;80.32
59104;BME280;51449;51.676;5.812;2023-02-23T00:46:10;101182.44;;;9.86;80.51
59104;BME280;51449;51.676;5.812;2023-02-23T00:48:33;101182.75;;;9.84;80.43
59104;BME280;51449;51.676;5.812;2023-02-23T00:51:03;101181.63;;;9.85;80.57
59104;BME280;51449;51.676;5.812;2023-02-23T00:53:27;101181.63;;;9.85;80.57
59104;BME280;51449;51.676;5.812;2023-02-23T00:55:49;101185.50;;;9.84;80.46
59104;BME280;51449;51.676;5.812;2023-02-23T00:58:10;101180.97;;;9.80;80.42
59104;BME280;51449;51.676;5.812;2023-02-23T01:00:35;101180.97;;;9.80;80.35
59104;BME280;51449;51.676;5.812;2023-02-23T01:03:02;101186.81;;;9.78;80.28
59104;BME280;51449;51.676;5.812;2023-02-23T01:05:24;101187.91;;;9.77;80.67
59104;BME280;51449;51.676;5.812;2023-02-23T01:07:47;101183.56;;;9.76;80.53
59104;BME280;51449;51.676;5.812;2023-02-23T01:10:09;101189.06;;;9.76;80.38
59104;BME280;51449;51.676;5.812;2023-02-23T01:12:41;101187.41;;;9.75;80.48
59104;BME280;51449;51.676;5.812;2023-02-23T01:15:03;101189.69;;;9.73;80.49
59104;BME280;51449;51.676;5.812;2023-02-23T01:17:25;101186.75;;;9.70;80.52
59104;BME280;51449;51.676;5.812;2023-02-23T01:19:47;101189.00;;;9.68;80.35
59104;BME280;51449;51.676;5.812;2023-02-23T01:22:09;101184.97;;;9.65;80.55
59104;BME280;51449;51.676;5.812;2023-02-23T01:24:34;101198.22;;;9.63;80.44
59104;BME280;51449;51.676;5.812;2023-02-23T01:26:58;101192.88;;;9.58;80.55
59104;BME280;51449;51.676;5.812;2023-02-23T01:29:20;101184.75;;;9.53;80.33
59104;BME280;51449;51.676;5.812;2023-02-23T01:31:48;101184.59;;;9.49;80.49
59104;BME280;51449;51.676;5.812;2023-02-23T01:34:14;101192.34;;;9.47;80.45
59104;BME280;51449;51.676;5.812;2023-02-23T01:36:37;101190.75;;;9.46;80.62
59104;BME280;51449;51.676;5.812;2023-02-23T01:39:03;101193.50;;;9.46;80.71
59104;BME280;51449;51.676;5.812;2023-02-23T01:41:28;101200.09;;;9.45;80.80
59104;BME280;51449;51.676;5.812;2023-02-23T01:46:34;101192.28;;;9.38;80.89
59104;BME280;51449;51.676;5.812;2023-02-23T01:48:59;101193.44;;;9.37;80.91
59104;BME280;51449;51.676;5.812;2023-02-23T01:51:27;101197.63;;;9.35;80.82
59104;BME280;51449;51.676;5.812;2023-02-23T01:54:01;101197.94;;;9.33;80.93
59104;BME280;51449;51.676;5.812;2023-02-23T01:56:39;101199.06;;;9.32;81.04
59104;BME280;51449;51.676;5.812;2023-02-23T01:59:06;101194.22;;;9.29;81.13
59104;BME280;51449;51.676;5.812;2023-02-23T02:01:28;101203.56;;;9.28;81.13
59104;BME280;51449;51.676;5.812;2023-02-23T02:04:00;101203.56;;;9.28;81.11
59104;BME280;51449;51.676;5.812;2023-02-23T02:06:27;101202.28;;;9.26;81.51
59104;BME280;51449;51.676;5.812;2023-02-23T02:08:51;101205.31;;;9.24;81.19
59104;BME280;51449;51.676;5.812;2023-02-23T02:11:17;101203.41;;;9.25;81.27
59104;BME280;51449;51.676;5.812;2023-02-23T02:13:59;101209.22;;;9.23;81.65
59104;BME280;51449;51.676;5.812;2023-02-23T02:17:01;101204.00;;;9.21;81.74
59104;BME280;51449;51.676;5.812;2023-02-23T02:26:07;101205.47;;;9.19;81.79
59104;BME280;51449;51.676;5.812;2023-02-23T02:37:57;101207.28;;;9.24;81.61
59104;BME280;51449;51.676;5.812;2023-02-23T02:41:00;101194.31;;;9.24;81.67
59104;BME280;51449;51.676;5.812;2023-02-23T02:43:49;101197.91;;;9.25;81.60
59104;BME280;51449;51.676;5.812;2023-02-23T02:46:28;101196.28;;;9.24;81.87
59104;BME280;51449;51.676;5.812;2023-02-23T02:51:41;101198.22;;;9.23;81.52
59104;BME280;51449;51.676;5.812;2023-02-23T02:54:25;101203.44;;;9.33;81.40
59104;BME280;51449;51.676;5.812;2023-02-23T02:56:53;101202.81;;;9.36;81.21
59104;BME280;51449;51.676;5.812;2023-02-23T02:59:19;101205.75;;;9.40;80.91
59104;BME280;51449;51.676;5.812;2023-02-23T03:02:01;101204.94;;;9.39;80.92
59104;BME280;51449;51.676;5.812;2023-02-23T03:04:43;101202.50;;;9.38;81.03
59104;BME280;51449;51.676;5.812;2023-02-23T03:17:54;101200.25;;;9.40;81.13
59104;BME280;51449;51.676;5.812;2023-02-23T03:20:57;101206.38;;;9.37;81.27
59104;BME280;51449;51.676;5.812;2023-02-23T03:24:02;101209.44;;;9.35;81.06
59104;BME280;51449;51.676;5.812;2023-02-23T03:27:18;101208.44;;;9.31;81.35
59104;BME280;51449;51.676;5.812;2023-02-23T03:33:41;101207.47;;;9.27;81.86
59104;BME280;51449;51.676;5.812;2023-02-23T03:36:36;101211.16;;;9.23;81.89
59104;BME280;51449;51.676;5.812;2023-02-23T03:39:36;101210.16;;;9.18;82.02
59104;BME280;51449;51.676;5.812;2023-02-23T03:42:20;101214.03;;;9.17;81.98
59104;BME280;51449;51.676;5.812;2023-02-23T03:45:10;101216.28;;;9.15;81.99
59104;BME280;51449;51.676;5.812;2023-02-23T03:47:56;101212.22;;;9.13;82.24
59104;BME280;51449;51.676;5.812;2023-02-23T03:50:42;101217.72;;;9.13;82.41
59104;BME280;51449;51.676;5.812;2023-02-23T03:53:35;101222.44;;;9.12;82.67
59104;BME280;51449;51.676;5.812;2023-02-23T03:56:25;101219.34;;;9.14;82.47
59104;BME280;51449;51.676;5.812;2023-02-23T03:59:09;101223.41;;;9.16;82.39
59104;BME280;51449;51.676;5.812;2023-02-23T04:01:54;101218.22;;;9.15;82.59
59104;BME280;51449;51.676;5.812;2023-02-23T04:04:37;101215.47;;;9.15;82.50
59104;BME280;51449;51.676;5.812;2023-02-23T04:07:19;101217.09;;;9.16;82.34
59104;BME280;51449;51.676;5.812;2023-02-23T04:10:00;101222.91;;;9.14;82.54
59104;BME280;51449;51.676;5.812;2023-02-23T04:12:55;101220.97;;;9.15;82.59
59104;BME280;51449;51.676;5.812;2023-02-23T04:15:38;101219.97;;;9.11;82.75
59104;BME280;51449;51.676;5.812;2023-02-23T04:18:22;101223.03;;;9.09;82.72
59104;BME280;51449;51.676;5.812;2023-02-23T04:20:47;101224.97;;;9.09;82.72
59104;BME280;51449;51.676;5.812;2023-02-23T04:23:09;101229.66;;;9.08;83.08
59104;BME280;51449;51.676;5.812;2023-02-23T04:25:31;101236.78;;;9.09;82.85
59104;BME280;51449;51.676;5.812;2023-02-23T04:27:52;101231.78;;;9.11;83.08
59104;BME280;51449;51.676;5.812;2023-02-23T04:30:14;101231.47;;;9.13;82.93
59104;BME280;51449;51.676;5.812;2023-02-23T04:32:36;101236.97;;;9.13;83.00
59104;BME280;51449;51.676;5.812;2023-02-23T04:34:59;101240.81;;;9.12;83.17
59104;BME280;51449;51.676;5.812;2023-02-23T04:37:21;101248.09;;;9.08;82.98
59104;BME280;51449;51.676;5.812;2023-02-23T04:39:43;101240.66;;;9.08;83.30
59104;BME280;51449;51.676;5.812;2023-02-23T04:42:08;101242.91;;;9.06;83.16
59104;BME280;51449;51.676;5.812;2023-02-23T04:44:30;101244.84;;;9.06;83.17
59104;BME280;51449;51.676;5.812;2023-02-23T04:46:53;101240.78;;;9.03;83.48
59104;BME280;51449;51.676;5.812;2023-02-23T04:49:16;101243.84;;;9.02;83.44
59104;BME280;51449;51.676;5.812;2023-02-23T04:51:37;101241.09;;;9.02;83.52
59104;BME280;51449;51.676;5.812;2023-02-23T04:53:59;101243.84;;;9.02;83.31
59104;BME280;51449;51.676;5.812;2023-02-23T04:56:21;101250.97;;;9.03;83.63
59104;BME280;51449;51.676;5.812;2023-02-23T04:58:42;101252.59;;;9.04;83.39
59104;BME280;51449;51.676;5.812;2023-02-23T05:01:07;101249.34;;;9.02;83.89
59104;BME280;51449;51.676;5.812;2023-02-23T05:03:30;101246.59;;;9.02;83.62
59104;BME280;51449;51.676;5.812;2023-02-23T05:05:51;101247.59;;;9.06;83.48
59104;BME280;51449;51.676;5.812;2023-02-23T05:08:13;101246.91;;;9.00;83.53
59104;BME280;51449;51.676;5.812;2023-02-23T05:10:35;101246.59;;;9.02;83.65
59104;BME280;51449;51.676;5.812;2023-02-23T05:13:00;101252.88;;;9.02;83.74
59104;BME280;51449;51.676;5.812;2023-02-23T05:15:22;101255.97;;;9.00;84.07
59104;BME280;51449;51.676;5.812;2023-02-23T05:17:43;101254.34;;;8.99;83.57
59104;BME280;51449;51.676;5.812;2023-02-23T05:20:05;101252.88;;;9.02;83.52
59104;BME280;51449;51.676;5.812;2023-02-23T05:22:28;101255.16;;;9.00;83.57
59104;BME280;51449;51.676;5.812;2023-02-23T05:24:50;101255.47;;;8.98;83.43
59104;BME280;51449;51.676;5.812;2023-02-23T05:27:11;101260.97;;;8.98;83.48
59104;BME280;51449;51.676;5.812;2023-02-23T05:29:34;101263.72;;;8.98;83.75
59104;BME280;51449;51.676;5.812;2023-02-23T05:31:56;101262.09;;;8.97;83.80
59104;BME280;51449;51.676;5.812;2023-02-23T05:34:17;101263.22;;;8.96;83.73
59104;BME280;51449;51.676;5.812;2023-02-23T05:36:42;101269.50;;;8.97;84.06
59104;BME280;51449;51.676;5.812;2023-02-23T05:39:04;101264.84;;;8.97;83.78
59104;BME280;51449;51.676;5.812;2023-02-23T05:41:25;101262.41;;;8.96;83.94
59104;BME280;51449;51.676;5.812;2023-02-23T05:43:48;101268.19;;;8.94;83.92
59104;BME280;51449;51.676;5.812;2023-02-23T05:46:16;101263.53;;;8.95;84.18
59104;BME280;51449;51.676;5.812;2023-02-23T05:48:41;101261.59;;;8.95;83.88
59104;BME280;51449;51.676;5.812;2023-02-23T05:51:05;101262.41;;;8.96;83.89
59104;BME280;51449;51.676;5.812;2023-02-23T05:53:28;101267.91;;;8.96;83.88
59104;BME280;51449;51.676;5.812;2023-02-23T05:55:50;101270.94;;;8.94;84.03
59104;BME280;51449;51.676;5.812;2023-02-23T05:58:12;101262.19;;;8.92;84.13
59104;BME280;51449;51.676;5.812;2023-02-23T06:00:34;101264.13;;;8.92;84.05
59104;BME280;51449;51.676;5.812;2023-02-23T06:02:55;101269.63;;;8.92;84.00
59104;BME280;51449;51.676;5.812;2023-02-23T06:05:18;101268.53;;;8.93;84.03
59104;BME280;51449;51.676;5.812;2023-02-23T06:07:40;101273.41;;;8.96;84.23
59104;BME280;51449;51.676;5.812;2023-02-23T06:10:02;101273.41;;;8.96;84.07
59104;BME280;51449;51.676;5.812;2023-02-23T06:12:24;101274.53;;;8.95;83.85
59104;BME280;51449;51.676;5.812;2023-02-23T06:14:46;101278.88;;;8.96;84.00
59104;BME280;51449;51.676;5.812;2023-02-23T06:17:08;101280.84;;;8.95;84.18
59104;BME280;51449;51.676;5.812;2023-02-23T06:19:29;101283.88;;;8.94;84.04
59104;BME280;51449;51.676;5.812;2023-02-23T06:21:51;101281.13;;;8.94;83.85
59104;BME280;51449;51.676;5.812;2023-02-23T06:24:13;101285.19;;;8.96;84.17
59104;BME280;51449;51.676;5.812;2023-02-23T06:26:36;101293.13;;;8.98;84.00
59104;BME280;51449;51.676;5.812;2023-02-23T06:28:57;101290.06;;;8.99;84.28
59104;BME280;51449;51.676;5.812;2023-02-23T06:31:19;101298.31;;;8.99;84.19
59104;BME280;51449;51.676;5.812;2023-02-23T06:33:41;101297.19;;;9.00;84.04
59104;BME280;51449;51.676;5.812;2023-02-23T06:36:03;101298.81;;;9.02;84.25
59104;BME280;51449;51.676;5.812;2023-02-23T06:38:25;101304.31;;;9.02;84.23
59104;BME280;51449;51.676;5.812;2023-02-23T06:40:48;101305.94;;;9.03;84.09
59104;BME280;51449;51.676;5.812;2023-02-23T06:43:10;101304.31;;;9.02;84.00
59104;BME280;51449;51.676;5.812;2023-02-23T06:45:32;101309.50;;;9.03;84.28
59104;BME280;51449;51.676;5.812;2023-02-23T06:47:53;101320.78;;;9.02;84.23
59104;BME280;51449;51.676;5.812;2023-02-23T06:50:15;101318.84;;;9.02;83.99
59104;BME280;51449;51.676;5.812;2023-02-23T06:52:37;101320.00;;;9.01;84.35
59104;BME280;51449;51.676;5.812;2023-02-23T06:54:59;101319.19;;;9.00;84.52
59104;BME280;51449;51.676;5.812;2023-02-23T06:57:21;101323.53;;;9.02;84.18
59104;BME280;51449;51.676;5.812;2023-02-23T06:59:42;101322.44;;;9.03;84.31
59104;BME280;51449;51.676;5.812;2023-02-23T07:02:04;101330.19;;;9.00;84.24
59104;BME280;51449;51.676;5.812;2023-02-23T07:04:27;101337.91;;;8.98;84.20
59104;BME280;51449;51.676;5.812;2023-02-23T07:06:48;101335.47;;;8.97;83.91
59104;BME280;51449;51.676;5.812;2023-02-23T07:09:10;101336.91;;;8.94;84.23
59104;BME280;51449;51.676;5.812;2023-02-23T07:11:32;101335.59;;;8.92;84.31
59104;BME280;51449;51.676;5.812;2023-02-23T07:13:57;101346.28;;;8.93;84.35
59104;BME280;51449;51.676;5.812;2023-02-23T07:16:19;101347.38;;;8.92;84.46
59104;BME280;51449;51.676;5.812;2023-02-23T07:18:42;101355.63;;;8.92;84.44
59104;BME280;51449;51.676;5.812;2023-02-23T07:21:03;101351.28;;;8.91;84.13
59104;BME280;51449;51.676;5.812;2023-02-23T07:23:25;101354.00;;;8.91;84.30
59104;BME280;51449;51.676;5.812;2023-02-23T07:25:52;101362.56;;;8.90;84.23
59104;BME280;51449;51.676;5.812;2023-02-23T07:28:16;101358.72;;;8.91;84.35
59104;BME280;51449;51.676;5.812;2023-02-23T07:30:38;101361.97;;;8.93;84.53
59104;BME280;51449;51.676;5.812;2023-02-23T07:33:00;101361.97;;;8.93;84.34
59104;BME280;51449;51.676;5.812;2023-02-23T07:35:22;101363.56;;;8.94;84.54
59104;BME280;51449;51.676;5.812;2023-02-23T07:37:44;101375.38;;;8.94;84.54
59104;BME280;51449;51.676;5.812;2023-02-23T07:40:06;101366.03;;;8.95;84.36
59104;BME280;51449;51.676;5.812;2023-02-23T07:42:28;101365.22;;;8.95;84.17
59104;BME280;51449;51.676;5.812;2023-02-23T07:44:50;101373.47;;;8.95;84.34
59104;BME280;51449;51.676;5.812;2023-02-23T07:47:12;101373.13;;;8.96;84.44
59104;BME280;51449;51.676;5.812;2023-02-23T07:49:33;101374.78;;;8.97;84.29
59104;BME280;51449;51.676;5.812;2023-02-23T07:51:55;101382.41;;;9.00;84.50
59104;BME280;51449;51.676;5.812;2023-02-23T07:54:17;101380.47;;;9.01;84.46
59104;BME280;51449;51.676;5.812;2023-02-23T07:56:38;101385.16;;;9.00;84.43
59104;BME280;51449;51.676;5.812;2023-02-23T07:59:00;101387.91;;;9.00;84.01
59104;BME280;51449;51.676;5.812;2023-02-23T08:01:22;101384.34;;;9.00;84.65
59104;BME280;51449;51.676;5.812;2023-02-23T08:03:44;101393.06;;;9.02;84.48
59104;BME280;51449;51.676;5.812;2023-02-23T08:06:09;101399.56;;;9.06;84.55
59104;BME280;51449;51.676;5.812;2023-02-23T08:08:31;101400.09;;;9.08;84.43
59104;BME280;51449;51.676;5.812;2023-02-23T08:11:01;101396.19;;;9.09;84.46
59104;BME280;51449;51.676;5.812;2023-02-23T08:13:24;101393.78;;;9.08;84.79
59104;BME280;51449;51.676;5.812;2023-02-23T08:15:46;101410.28;;;9.08;84.57
59104;BME280;51449;51.676;5.812;2023-02-23T08:18:08;101405.06;;;9.06;84.49
59104;BME280;51449;51.676;5.812;2023-02-23T08:20:30;101408.97;;;9.05;84.58
59104;BME280;51449;51.676;5.812;2023-02-23T08:22:56;101418.00;;;9.06;84.56
59104;BME280;51449;51.676;5.812;2023-02-23T08:25:18;101419.16;;;9.05;84.85
59104;BME280;51449;51.676;5.812;2023-02-23T08:27:40;101413.66;;;9.05;84.58
59104;BME280;51449;51.676;5.812;2023-02-23T08:30:02;101410.56;;;9.06;84.66
59104;BME280;51449;51.676;5.812;2023-02-23T08:32:25;101419.16;;;9.05;84.87
59104;BME280;51449;51.676;5.812;2023-02-23T08:34:47;101427.06;;;9.06;84.82
59104;BME280;51449;51.676;5.812;2023-02-23T08:37:09;101425.75;;;9.04;85.04
59104;BME280;51449;51.676;5.812;2023-02-23T08:39:34;101423.50;;;9.06;85.12
59104;BME280;51449;51.676;5.812;2023-02-23T08:41:56;101426.25;;;9.06;84.95
59104;BME280;51449;51.676;5.812;2023-02-23T08:44:17;101429.00;;;9.06;84.99
59104;BME280;51449;51.676;5.812;2023-02-23T08:46:39;101425.44;;;9.05;85.10
59104;BME280;51449;51.676;5.812;2023-02-23T08:49:00;101429.50;;;9.08;84.96
59104;BME280;51449;51.676;5.812;2023-02-23T08:51:23;101436.63;;;9.09;85.21
59104;BME280;51449;51.676;5.812;2023-02-23T08:53:47;101439.59;;;9.12;85.01
59104;BME280;51449;51.676;5.812;2023-02-23T08:56:09;101437.81;;;9.16;84.96
59104;BME280;51449;51.676;5.812;2023-02-23T08:58:34;101443.53;;;9.20;85.01
59104;BME280;51449;51.676;5.812;2023-02-23T09:00:57;101439.88;;;9.25;85.06
59104;BME280;51449;51.676;5.812;2023-02-23T09:03:21;101440.03;;;9.28;85.07
59104;BME280;51449;51.676;5.812;2023-02-23T09:05:43;101443.31;;;9.30;85.00
59104;BME280;51449;51.676;5.812;2023-02-23T09:08:05;101443.81;;;9.32;84.77
59104;BME280;51449;51.676;5.812;2023-02-23T09:10:27;101436.88;;;9.35;84.72
59104;BME280;51449;51.676;5.812;2023-02-23T09:12:49;101443.88;;;9.41;84.82
59104;BME280;51449;51.676;5.812;2023-02-23T09:15:11;101451.81;;;9.42;84.93
59104;BME280;51449;51.676;5.812;2023-02-23T09:17:33;101454.56;;;9.42;84.72
59104;BME280;51449;51.676;5.812;2023-02-23T09:19:55;101461.38;;;9.45;84.82
59104;BME280;51449;51.676;5.812;2023-02-23T09:22:17;101459.16;;;9.47;84.54
59104;BME280;51449;51.676;5.812;2023-02-23T09:24:38;101465.16;;;9.49;84.53
59104;BME280;51449;51.676;5.812;2023-02-23T09:27:00;101470.31;;;9.51;84.49
59104;BME280;51449;51.676;5.812;2023-02-23T09:29:22;101466.75;;;9.50;84.43
59104;BME280;51449;51.676;5.812;2023-02-23T09:31:43;101471.16;;;9.51;84.36
59104;BME280;51449;51.676;5.812;2023-02-23T09:34:05;101479.72;;;9.50;84.23
59104;BME280;51449;51.676;5.812;2023-02-23T09:36:30;101481.16;;;9.47;83.89
59104;BME280;51449;51.676;5.812;2023-02-23T09:38:53;101480.13;;;9.43;83.88
59104;BME280;51449;51.676;5.812;2023-02-23T09:50:54;101488.09;;;9.45;84.04
59104;BME280;51449;51.676;5.812;2023-02-23T09:58:59;101486.22;;;9.54;83.94
59104;BME280;51449;51.676;5.812;2023-02-23T10:04:34;101493.34;;;9.55;83.39
59104;BME280;51449;51.676;5.812;2023-02-23T10:13:18;101495.91;;;9.51;82.89
59104;BME280;51449;51.676;5.812;2023-02-23T10:16:01;101497.03;;;9.50;82.55
59104;BME280;51449;51.676;5.812;2023-02-23T10:18:46;101495.59;;;9.53;82.91
59104;BME280;51449;51.676;5.812;2023-02-23T10:21:32;101488.34;;;9.57;83.04
59104;BME280;51449;51.676;5.812;2023-02-23T10:24:03;101495.69;;;9.61;83.04
59104;BME280;51449;51.676;5.812;2023-02-23T10:26:41;101494.13;;;9.69;82.97
59104;BME280;51449;51.676;5.812;2023-02-23T10:29:20;101492.25;;;9.78;82.97
59104;BME280;51449;51.676;5.812;2023-02-23T10:31:54;101493.94;;;9.88;83.46
59104;BME280;51449;51.676;5.812;2023-02-23T10:34:20;101488.81;;;9.95;82.98
59104;BME280;51449;51.676;5.812;2023-02-23T10:37:00;101487.69;;;9.96;82.09
59104;BME280;51449;51.676;5.812;2023-02-23T10:39:25;101494.84;;;9.97;81.98
59104;BME280;51449;51.676;5.812;2023-02-23T10:41:46;101493.69;;;9.98;81.84
59104;BME280;51449;51.676;5.812;2023-02-23T10:44:17;101506.00;;;10.01;81.60
59104;BME280;51449;51.676;5.812;2023-02-23T10:46:42;101504.69;;;9.98;81.45
59104;BME280;51449;51.676;5.812;2023-02-23T10:49:16;101509.41;;;9.98;81.11
59104;BME280;51449;51.676;5.812;2023-02-23T10:51:43;101501.16;;;9.98;81.42
59104;BME280;51449;51.676;5.812;2023-02-23T10:56:56;101511.81;;;9.99;81.12
59104;BME280;51449;51.676;5.812;2023-02-23T10:59:19;101511.53;;;10.01;81.15
59104;BME280;51449;51.676;5.812;2023-02-23T11:01:42;101517.19;;;10.04;81.12
59104;BME280;51449;51.676;5.812;2023-02-23T11:04:24;101513.50;;;10.09;81.12
59104;BME280;51449;51.676;5.812;2023-02-23T11:06:49;101522.28;;;10.11;80.55
59104;BME280;51449;51.676;5.812;2023-02-23T11:09:25;101515.31;;;10.14;80.62
59104;BME280;51449;51.676;5.812;2023-02-23T11:12:37;101521.84;;;10.18;80.90
59104;BME280;51449;51.676;5.812;2023-02-23T11:15:27;101517.34;;;10.22;80.68
59104;BME280;51449;51.676;5.812;2023-02-23T11:18:19;101512.94;;;10.21;80.14
59104;BME280;51449;51.676;5.812;2023-02-23T11:20:43;101520.09;;;10.22;80.04
59104;BME280;51449;51.676;5.812;2023-02-23T11:23:16;101517.00;;;10.23;79.56
59104;BME280;51449;51.676;5.812;2023-02-23T11:25:44;101515.06;;;10.24;79.33
59104;BME280;51449;51.676;5.812;2023-02-23T11:28:16;101507.84;;;10.28;79.63
59104;BME280;51449;51.676;5.812;2023-02-23T11:30:43;101509.97;;;10.31;79.71
59104;BME280;51449;51.676;5.812;2023-02-23T11:33:06;101506.59;;;10.34;79.74
59104;BME280;51449;51.676;5.812;2023-02-23T11:35:31;101510.16;;;10.35;78.88
59104;BME280;51449;51.676;5.812;2023-02-23T11:37:53;101498.63;;;10.33;78.94
59104;BME280;51449;51.676;5.812;2023-02-23T11:40:25;101493.13;;;10.33;79.03
59104;BME280;51449;51.676;5.812;2023-02-23T11:43:15;101491.19;;;10.33;78.65
59104;BME280;51449;51.676;5.812;2023-02-23T11:45:48;101488.25;;;10.30;78.35
59104;BME280;51449;51.676;5.812;2023-02-23T11:48:29;101488.75;;;10.32;78.51
59104;BME280;51449;51.676;5.812;2023-02-23T11:50:55;101495.06;;;10.32;78.57
59104;BME280;51449;51.676;5.812;2023-02-23T11:53:23;101494.13;;;10.37;78.77
59104;BME280;51449;51.676;5.812;2023-02-23T11:55:51;101500.75;;;10.36;78.35
59104;BME280;51449;51.676;5.812;2023-02-23T11:58:22;101496.38;;;10.35;77.90
59104;BME280;51449;51.676;5.812;2023-02-23T12:01:00;101499.31;;;10.38;77.83
59104;BME280;51449;51.676;5.812;2023-02-23T12:03:33;101505.66;;;10.39;77.93
59104;BME280;51449;51.676;5.812;2023-02-23T12:05:56;101504.19;;;10.41;77.69
59104;BME280;51449;51.676;5.812;2023-02-23T12:08:22;101509.56;;;10.46;78.01
59104;BME280;51449;51.676;5.812;2023-02-23T12:10:57;101497.41;;;10.47;77.77
59104;BME280;51449;51.676;5.812;2023-02-23T12:13:35;101497.59;;;10.51;77.72
59104;BME280;51449;51.676;5.812;2023-02-23T12:16:17;101493.06;;;10.55;78.22
59104;BME280;51449;51.676;5.812;2023-02-23T12:18:52;101492.94;;;10.60;77.92
59104;BME280;51449;51.676;5.812;2023-02-23T12:21:42;101493.56;;;10.57;77.42
59104;BME280;51449;51.676;5.812;2023-02-23T12:29:43;101486.91;;;10.58;77.21
59104;BME280;51449;51.676;5.812;2023-02-23T12:32:25;101486.91;;;10.58;77.09
59104;BME280;51449;51.676;5.812;2023-02-23T12:35:00;101493.06;;;10.55;76.61
59104;BME280;51449;51.676;5.812;2023-02-23T12:37:45;101495.03;;;10.55;75.95
59104;BME280;51449;51.676;5.812;2023-02-23T12:40:24;101489.50;;;10.55;76.40
59104;BME280;51449;51.676;5.812;2023-02-23T12:42:59;101488.69;;;10.54;76.24
59104;BME280;51449;51.676;5.812;2023-02-23T12:45:28;101490.00;;;10.57;76.69
59104;BME280;51449;51.676;5.812;2023-02-23T12:48:10;101491.16;;;10.64;76.82
59104;BME280;51449;51.676;5.812;2023-02-23T12:50:41;101483.91;;;10.68;76.78
59104;BME280;51449;51.676;5.812;2023-02-23T12:53:21;101477.09;;;10.75;76.52
59104;BME280;51449;51.676;5.812;2023-02-23T13:01:53;101489.44;;;10.77;75.37
59104;BME280;51449;51.676;5.812;2023-02-23T13:07:40;101498.84;;;10.76;75.52
59104;BME280;51449;51.676;5.812;2023-02-23T13:13:35;101491.16;;;10.64;74.90
59104;BME280;51449;51.676;5.812;2023-02-23T13:19:20;101495.31;;;10.53;75.39
59104;BME280;51449;51.676;5.812;2023-02-23T13:21:53;101484.94;;;10.50;75.41
59104;BME280;51449;51.676;5.812;2023-02-23T13:24:25;101485.75;;;10.50;75.10
59104;BME280;51449;51.676;5.812;2023-02-23T13:27:00;101483.63;;;10.47;74.87
59104;BME280;51449;51.676;5.812;2023-02-23T13:29:42;101487.19;;;10.48;75.03
59104;BME280;51449;51.676;5.812;2023-02-23T13:32:16;101491.09;;;10.47;74.81
59104;BME280;51449;51.676;5.812;2023-02-23T13:37:27;101483.94;;;10.46;74.91
59104;BME280;51449;51.676;5.812;2023-02-23T13:40:23;101481.81;;;10.43;74.45
59104;BME280;51449;51.676;5.812;2023-02-23T13:46:27;101484.09;;;10.41;74.75
59104;BME280;51449;51.676;5.812;2023-02-23T13:48:58;101484.88;;;10.33;74.44
59104;BME280;51449;51.676;5.812;2023-02-23T13:51:48;101480.81;;;10.30;74.18
59104;BME280;51449;51.676;5.812;2023-02-23T13:56:48;101474.66;;;10.33;74.30
59104;BME280;51449;51.676;5.812;2023-02-23T13:59:20;101474.84;;;10.37;74.14
59104;BME280;51449;51.676;5.812;2023-02-23T14:01:46;101486.66;;;10.37;74.02
59104;BME280;51449;51.676;5.812;2023-02-23T14:04:20;101481.97;;;10.38;73.53
59104;BME280;51449;51.676;5.812;2023-02-23T14:07:02;101489.13;;;10.39;73.59
59104;BME280;51449;51.676;5.812;2023-02-23T14:09:41;101494.44;;;10.35;73.20
59104;BME280;51449;51.676;5.812;2023-02-23T14:19:40;101502.03;;;10.30;72.36
59104;BME280;51449;51.676;5.812;2023-02-23T14:22:08;101498.13;;;10.31;72.10
59104;BME280;51449;51.676;5.812;2023-02-23T14:24:36;101498.13;;;10.31;72.20
59104;BME280;51449;51.676;5.812;2023-02-23T14:29:30;101504.25;;;10.27;72.22
59104;BME280;51449;51.676;5.812;2023-02-23T14:37:27;101501.63;;;10.22;72.18
59104;BME280;51449;51.676;5.812;2023-02-23T14:39:59;101506.13;;;10.18;72.72
59104;BME280;51449;51.676;5.812;2023-02-23T14:42:27;101504.31;;;10.14;73.16
59104;BME280;51449;51.676;5.812;2023-02-23T14:44:54;101506.91;;;10.10;73.41
59104;BME280;51449;51.676;5.812;2023-02-23T14:47:20;101509.16;;;10.08;73.82
59104;BME280;51449;51.676;5.812;2023-02-23T14:49:50;101513.00;;;10.07;73.68
59104;BME280;51449;51.676;5.812;2023-02-23T14:52:20;101519.47;;;10.02;73.69